Time,TemperatureF,DewpointF,PressureIn,WindDirection,WindDirectionDegrees,WindSpeedMPH,WindSpeedGustMPH,Humidity,HourlyPrecipIn,Conditions,Clouds,dailyrainin,SoftwareType,DateUTC
2012-11-12 00:00:00,41.8,19.8,30.25,East,90,1.0,3.0,41,0.00,,,0.00,WUHU216DAVISVP2,2012-11-12 08:00:00,
2012-11-12 00:30:00,41.9,18.7,30.22,ENE,68,1.0,4.0,39,0.00,,,0.00,WUHU216DAVISVP2,2012-11-12 08:30:00,
2012-11-12 01:00:00,43.1,17.3,30.19,NE,45,1.0,5.0,35,0.00,,,0.00,WUHU216DAVISVP2,2012-11-12 09:00:00,
2012-11-12 01:30:00,41.8,16.1,30.18,NNE,23,0.0,3.0,35,0.00,,,0.00,WUHU216DAVISVP2,2012-11-12 09:30:00,
2012-11-12 02:00:00,45.2,15.6,30.17,NE,45,1.0,6.0,30,0.00,,,0.00,WUHU216DAVISVP2,2012-11-12 10:00:00,
2012-11-12 02:30:00,47.5,15.1,30.17,ENE,68,3.0,10.0,27,0.00,,,0.00,WUHU216DAVISVP2,2012-11-12 10:30:00,
2012-11-12 03:00:00,47.9,15.5,30.17,ENE,68,3.0,9.0,27,0.00,,,0.00,WUHU216DAVISVP2,2012-11-12 11:00:00,
2012-11-12 03:30:00,47.5,15.1,30.18,NE,45,2.0,10.0,27,0.00,,,0.00,WUHU216DAVISVP2,2012-11-12 11:30:00,
2012-11-12 04:00:00,47.7,15.3,30.19,East,90,2.0,7.0,27,0.00,,,0.00,WUHU216DAVISVP2,2012-11-12 12:00:00,
2012-11-12 04:30:00,48.0,15.6,30.19,East,90,4.0,8.0,27,0.00,,,0.00,WUHU216DAVISVP2,2012-11-12 12:30:00,
2012-11-12 05:00:00,47.3,15.8,30.19,East,90,3.0,7.0,28,0.00,,,0.00,WUHU216DAVISVP2,2012-11-12 13:00:00,
2012-11-12 05:30:00,46.3,15.7,30.20,East,90,1.0,5.0,29,0.00,,,0.00,WUHU216DAVISVP2,2012-11-12 13:30:00,
2012-11-12 06:00:00,48.4,14.1,30.20,ENE,68,5.0,11.0,25,0.00,,,0.00,WUHU216DAVISVP2,2012-11-12 14:00:00,
2012-11-12 06:30:00,50.0,14.6,30.21,East,90,4.0,9.0,24,0.00,,,0.00,WUHU216DAVISVP2,2012-11-12 14:30:00,
2012-11-12 07:00:00,52.0,15.3,30.22,East,90,6.0,15.0,23,0.00,,,0.00,WUHU216DAVISVP2,2012-11-12 15:00:00,
2012-11-12 07:30:00,53.4,15.4,30.22,ENE,68,8.0,20.0,22,0.00,,,0.00,WUHU216DAVISVP2,2012-11-12 15:30:00,
2012-11-12 08:00:00,54.6,15.4,30.23,ENE,68,10.0,22.0,21,0.00,,,0.00,WUHU216DAVISVP2,2012-11-12 16:00:00,
2012-11-12 08:30:00,56.3,15.7,30.21,East,90,10.0,22.0,20,0.00,,,0.00,WUHU216DAVISVP2,2012-11-12 16:30:00,
2012-11-12 09:00:00,58.3,14.9,30.21,East,90,9.0,21.0,18,0.00,,,0.00,WUHU216DAVISVP2,2012-11-12 17:00:00,
2012-11-12 09:30:00,59.5,14.6,30.20,East,90,11.0,21.0,17,0.00,,,0.00,WUHU216DAVISVP2,2012-11-12 17:30:00,
2012-11-12 10:00:00,61.4,14.7,30.18,East,90,10.0,22.0,16,0.00,,,0.00,WUHU216DAVISVP2,2012-11-12 18:00:00,
2012-11-12 10:30:00,62.6,14.2,30.16,East,90,10.0,20.0,15,0.00,,,0.00,WUHU216DAVISVP2,2012-11-12 18:30:00,
2012-11-12 11:00:00,63.5,15.0,30.14,East,90,11.0,22.0,15,0.00,,,0.00,WUHU216DAVISVP2,2012-11-12 19:00:00,
2012-11-12 11:30:00,64.7,14.3,30.11,East,90,11.0,20.0,14,0.00,,,0.00,WUHU216DAVISVP2,2012-11-12 19:30:00,
2012-11-12 12:00:00,65.7,13.4,30.10,East,90,11.0,21.0,13,0.00,,,0.00,WUHU216DAVISVP2,2012-11-12 20:00:00,
2012-11-12 12:30:00,66.8,14.3,30.08,East,90,10.0,19.0,13,0.00,,,0.00,WUHU216DAVISVP2,2012-11-12 20:30:00,
2012-11-12 13:00:00,68.2,13.6,30.07,East,90,9.0,18.0,12,0.00,,,0.00,WUHU216DAVISVP2,2012-11-12 21:00:00,
2012-11-12 13:30:00,69.0,12.2,30.06,ENE,68,8.0,17.0,11,0.00,,,0.00,WUHU216DAVISVP2,2012-11-12 21:30:00,
2012-11-12 14:00:00,69.6,12.7,30.05,ENE,68,8.0,17.0,11,0.00,,,0.00,WUHU216DAVISVP2,2012-11-12 22:00:00,
2012-11-12 14:30:00,69.8,10.7,30.05,East,90,7.0,15.0,10,0.00,,,0.00,WUHU216DAVISVP2,2012-11-12 22:30:00,
2012-11-12 15:00:00,67.7,11.2,30.05,ENE,68,6.0,12.0,11,0.00,,,0.00,WUHU216DAVISVP2,2012-11-12 23:00:00,
2012-11-12 15:30:00,66.8,10.5,30.05,ENE,68,5.0,12.0,11,0.00,,,0.00,WUHU216DAVISVP2,2012-11-12 23:30:00,
2012-11-12 16:00:00,65.6,11.5,30.05,ENE,68,4.0,10.0,12,0.00,,,0.00,WUHU216DAVISVP2,2012-11-13 00:00:00,
2012-11-12 16:30:00,63.9,12.0,30.05,ENE,68,3.0,9.0,13,0.00,,,0.00,WUHU216DAVISVP2,2012-11-13 00:30:00,
2012-11-12 17:00:00,60.8,12.8,30.06,ENE,68,2.0,5.0,15,0.00,,,0.00,WUHU216DAVISVP2,2012-11-13 01:00:00,
2012-11-12 17:30:00,59.7,11.9,30.06,ENE,68,2.0,6.0,15,0.00,,,0.00,WUHU216DAVISVP2,2012-11-13 01:30:00,
2012-11-12 18:00:00,58.3,12.2,30.07,ENE,68,2.0,5.0,16,0.00,,,0.00,WUHU216DAVISVP2,2012-11-13 02:00:00,
2012-11-12 18:30:00,57.9,13.3,30.07,ENE,68,2.0,6.0,17,0.00,,,0.00,WUHU216DAVISVP2,2012-11-13 02:30:00,
2012-11-12 19:00:00,55.9,14.2,30.07,NE,45,1.0,5.0,19,0.00,,,0.00,WUHU216DAVISVP2,2012-11-13 03:00:00,
2012-11-12 19:30:00,56.9,13.8,30.07,ENE,68,2.0,8.0,18,0.00,,,0.00,WUHU216DAVISVP2,2012-11-13 03:30:00,
2012-11-12 20:00:00,58.3,12.2,30.06,ENE,68,4.0,11.0,16,0.00,,,0.00,WUHU216DAVISVP2,2012-11-13 04:00:00,
2012-11-12 20:30:00,57.9,13.3,30.07,ENE,68,4.0,9.0,17,0.00,,,0.00,WUHU216DAVISVP2,2012-11-13 04:30:00,
2012-11-12 21:00:00,56.9,13.8,30.07,ENE,68,4.0,11.0,18,0.00,,,0.00,WUHU216DAVISVP2,2012-11-13 05:00:00,
2012-11-12 21:30:00,57.0,13.8,30.07,ENE,68,5.0,11.0,18,0.00,,,0.00,WUHU216DAVISVP2,2012-11-13 05:30:00,
2012-11-12 22:00:00,58.0,12.0,30.06,ENE,68,6.0,13.0,16,0.00,,,0.00,WUHU216DAVISVP2,2012-11-13 06:00:00,
2012-11-12 22:30:00,57.4,12.9,30.05,ENE,68,6.0,12.0,17,0.00,,,0.00,WUHU216DAVISVP2,2012-11-13 06:30:00,
2012-11-12 23:00:00,57.1,12.6,30.06,East,90,6.0,13.0,17,0.00,,,0.00,WUHU216DAVISVP2,2012-11-13 07:00:00,
2012-11-12 23:30:00,56.4,12.1,30.06,ENE,68,5.0,12.0,17,0.00,,,0.00,WUHU216DAVISVP2,2012-11-13 07:30:00,